DLH1347 LPPR-LPMA
Flight info
| Callsign | DLH1347 |
|---|---|
| Flight time | N/A |
| Altitude | 39000 |
| Route | ASMOV DCT DIRMA DCT VABEM DCT LIDRO |
| Aircraft | A339/H-SADE1E2E3GHIJ3J5M1P2RWXY/LB2D1 |
Departure
| Time | 2026-05-07 17:39 |
|---|---|
| Airport | Francisco de Sá Carneiro Airport (LPPR) |
Arrival
| Time | N/A |
|---|---|
| Airport | Cristiano Ronaldo International Airport (LPMA) |
| Time | Latitude | Longitude | Altitude | Speed | Heading |
|---|---|---|---|---|---|
| 2026-05-07 17:13 | 41.23637 | -8.67249 | 242 ft | 0 kts | 81° |
| 2026-05-07 17:29 | 41.23635 | -8.67266 | 241 ft | 2 kts | 81° |
| 2026-05-07 17:30 | 41.23633 | -8.67284 | 241 ft | 2 kts | 81° |
| 2026-05-07 17:30 | 41.23630 | -8.67304 | 240 ft | 2 kts | 108° |
| 2026-05-07 17:30 | 41.23634 | -8.67322 | 240 ft | 2 kts | 136° |
| 2026-05-07 17:30 | 41.23645 | -8.67335 | 239 ft | 2 kts | 157° |
| 2026-05-07 17:31 | 41.23653 | -8.67340 | 239 ft | 0 kts | 170° |
| 2026-05-07 17:34 | 41.23629 | -8.67336 | 239 ft | 6 kts | 175° |
| 2026-05-07 17:34 | 41.23577 | -8.67351 | 240 ft | 11 kts | 199° |
| 2026-05-07 17:34 | 41.23485 | -8.67380 | 240 ft | 15 kts | 181° |
| 2026-05-07 17:35 | 41.23379 | -8.67375 | 240 ft | 15 kts | 193° |
| 2026-05-07 17:35 | 41.23340 | -8.67401 | 240 ft | 3 kts | 213° |
| 2026-05-07 17:35 | 41.23333 | -8.67431 | 240 ft | 4 kts | 250° |
| 2026-05-07 17:35 | 41.23328 | -8.67457 | 240 ft | 5 kts | 253° |
| 2026-05-07 17:36 | 41.23320 | -8.67503 | 241 ft | 5 kts | 259° |
| 2026-05-07 17:36 | 41.23314 | -8.67546 | 243 ft | 4 kts | 259° |
| 2026-05-07 17:36 | 41.23310 | -8.67579 | 244 ft | 3 kts | 258° |
| 2026-05-07 17:36 | 41.23308 | -8.67587 | 244 ft | 0 kts | 258° |
| 2026-05-07 17:38 | 41.23303 | -8.67618 | 245 ft | 15 kts | 258° |
| 2026-05-07 17:38 | 41.23337 | -8.67732 | 246 ft | 13 kts | 333° |
| 2026-05-07 17:39 | 41.23480 | -8.67776 | 239 ft | 45 kts | 349° |
| 2026-05-07 17:39 | 41.24108 | -8.67939 | 216 ft | 135 kts | 348° |
| 2026-05-07 17:39 | 41.25238 | -8.68236 | 354 ft | 186 kts | 348° |
| 2026-05-07 17:39 | 41.26574 | -8.68594 | 882 ft | 205 kts | 348° |
| 2026-05-07 17:40 | 41.27930 | -8.68959 | 1374 ft | 194 kts | 348° |
| 2026-05-07 17:40 | 41.28952 | -8.69226 | 1767 ft | 194 kts | 348° |
| 2026-05-07 17:40 | 41.30204 | -8.69715 | 2213 ft | 183 kts | 330° |
| 2026-05-07 17:40 | 41.31371 | -8.70364 | 2492 ft | 181 kts | 329° |
| 2026-05-07 17:41 | 41.32517 | -8.70947 | 2870 ft | 170 kts | 335° |
| 2026-05-07 17:41 | 41.33675 | -8.71319 | 3371 ft | 179 kts | 358° |
| 2026-05-07 17:41 | 41.34980 | -8.71265 | 3957 ft | 197 kts | 6° |
| 2026-05-07 17:41 | 41.36374 | -8.71183 | 4461 ft | 202 kts | 1° |
| 2026-05-07 17:42 | 41.37782 | -8.71291 | 4964 ft | 204 kts | 355° |
| 2026-05-07 17:42 | 41.39192 | -8.71569 | 5471 ft | 205 kts | 351° |
| 2026-05-07 17:42 | 41.40121 | -8.71812 | 5812 ft | 206 kts | 349° |
| 2026-05-07 17:42 | 41.41434 | -8.72558 | 6284 ft | 207 kts | 323° |
| 2026-05-07 17:43 | 41.42332 | -8.74042 | 6793 ft | 208 kts | 294° |
| 2026-05-07 17:43 | 41.42571 | -8.75927 | 7308 ft | 209 kts | 265° |
| 2026-05-07 17:43 | 41.42067 | -8.77733 | 7815 ft | 211 kts | 234° |
| 2026-05-07 17:43 | 41.40944 | -8.78990 | 8347 ft | 213 kts | 209° |
| 2026-05-07 17:44 | 41.39598 | -8.79838 | 8838 ft | 215 kts | 205° |
| 2026-05-07 17:44 | 41.38249 | -8.80721 | 9347 ft | 217 kts | 209° |
| 2026-05-07 17:44 | 41.36955 | -8.81769 | 9848 ft | 218 kts | 214° |
| 2026-05-07 17:44 | 41.35715 | -8.82950 | 10351 ft | 220 kts | 217° |
| 2026-05-07 17:45 | 41.34505 | -8.84205 | 10864 ft | 223 kts | 219° |
| 2026-05-07 17:45 | 41.33264 | -8.85534 | 11372 ft | 233 kts | 219° |
| 2026-05-07 17:45 | 41.32003 | -8.86890 | 11868 ft | 232 kts | 219° |
| 2026-05-07 17:45 | 41.30748 | -8.88232 | 12367 ft | 233 kts | 219° |
| 2026-05-07 17:46 | 41.29477 | -8.89584 | 12871 ft | 235 kts | 219° |
| 2026-05-07 17:46 | 41.28197 | -8.90942 | 13372 ft | 236 kts | 219° |
| 2026-05-07 17:46 | 41.26905 | -8.92308 | 13876 ft | 238 kts | 219° |
| 2026-05-07 17:46 | 41.25601 | -8.93686 | 14374 ft | 241 kts | 219° |
| 2026-05-07 17:47 | 41.24266 | -8.95096 | 14842 ft | 250 kts | 219° |
| 2026-05-07 17:47 | 41.22873 | -8.96567 | 15244 ft | 261 kts | 219° |
| 2026-05-07 17:47 | 41.21427 | -8.98092 | 15631 ft | 273 kts | 219° |
| 2026-05-07 17:47 | 41.19905 | -8.99696 | 16016 ft | 285 kts | 219° |
| 2026-05-07 17:48 | 41.18315 | -9.01371 | 16405 ft | 297 kts | 219° |
| 2026-05-07 17:48 | 41.16665 | -9.03108 | 16785 ft | 309 kts | 219° |
| 2026-05-07 17:48 | 41.14952 | -9.04911 | 17170 ft | 320 kts | 219° |
| 2026-05-07 17:48 | 41.13181 | -9.06772 | 17548 ft | 330 kts | 219° |
| 2026-05-07 17:49 | 41.11355 | -9.08692 | 17939 ft | 340 kts | 219° |
| 2026-05-07 17:49 | 41.09476 | -9.10666 | 18313 ft | 349 kts | 219° |
| 2026-05-07 17:49 | 41.07548 | -9.12689 | 18683 ft | 358 kts | 218° |
| 2026-05-07 17:49 | 41.05601 | -9.14730 | 19050 ft | 366 kts | 218° |
| 2026-05-07 17:50 | 41.03588 | -9.16841 | 19445 ft | 373 kts | 218° |
| 2026-05-07 17:50 | 41.01532 | -9.18994 | 19824 ft | 380 kts | 218° |
| 2026-05-07 17:50 | 40.99438 | -9.21185 | 20202 ft | 387 kts | 218° |
| 2026-05-07 17:50 | 40.97315 | -9.23403 | 20591 ft | 389 kts | 218° |
| 2026-05-07 17:51 | 40.95185 | -9.25626 | 20954 ft | 392 kts | 218° |
| 2026-05-07 17:51 | 40.93039 | -9.27865 | 21331 ft | 395 kts | 218° |
| 2026-05-07 17:51 | 40.90862 | -9.30133 | 21714 ft | 402 kts | 218° |
| 2026-05-07 17:51 | 40.88648 | -9.32438 | 22090 ft | 408 kts | 218° |
| 2026-05-07 17:52 | 40.86414 | -9.34762 | 22580 ft | 410 kts | 218° |
| 2026-05-07 17:52 | 40.84156 | -9.37109 | 22973 ft | 416 kts | 218° |
| 2026-05-07 17:52 | 40.81867 | -9.39486 | 23357 ft | 419 kts | 218° |
| 2026-05-07 17:52 | 40.79562 | -9.41877 | 23855 ft | 422 kts | 218° |
| 2026-05-07 17:53 | 40.77249 | -9.44275 | 24358 ft | 424 kts | 218° |
| 2026-05-07 17:53 | 40.74930 | -9.46677 | 24866 ft | 425 kts | 218° |
| 2026-05-07 17:53 | 40.72598 | -9.49090 | 25348 ft | 427 kts | 218° |
| 2026-05-07 17:53 | 40.70260 | -9.51507 | 25861 ft | 428 kts | 218° |
| 2026-05-07 17:54 | 40.67938 | -9.53905 | 26355 ft | 429 kts | 218° |
| 2026-05-07 17:54 | 40.65558 | -9.56360 | 26865 ft | 429 kts | 218° |
| 2026-05-07 17:54 | 40.63234 | -9.58756 | 27353 ft | 430 kts | 218° |
| 2026-05-07 17:54 | 40.60881 | -9.61180 | 27850 ft | 430 kts | 218° |
| 2026-05-07 17:55 | 40.58524 | -9.63605 | 28353 ft | 429 kts | 218° |
| 2026-05-07 17:55 | 40.56174 | -9.66021 | 28851 ft | 429 kts | 218° |
| 2026-05-07 17:55 | 40.53828 | -9.68431 | 29350 ft | 428 kts | 218° |
| 2026-05-07 17:55 | 40.52158 | -9.70145 | 29708 ft | 427 kts | 218° |
| 2026-05-07 17:56 | 40.49668 | -9.72616 | 30228 ft | 415 kts | 217° |
| 2026-05-07 17:56 | 40.47371 | -9.74926 | 30587 ft | 418 kts | 218° |
| 2026-05-07 17:56 | 40.45074 | -9.77320 | 30852 ft | 424 kts | 219° |
| 2026-05-07 17:57 | 40.42753 | -9.79744 | 31108 ft | 429 kts | 219° |
| 2026-05-07 17:57 | 40.41196 | -9.81359 | 31272 ft | 432 kts | 218° |
| 2026-05-07 17:57 | 40.38006 | -9.84640 | 31610 ft | 439 kts | 218° |
| 2026-05-07 17:57 | 40.35582 | -9.87118 | 31866 ft | 444 kts | 218° |
| 2026-05-07 17:58 | 40.33132 | -9.89615 | 32122 ft | 448 kts | 218° |
| 2026-05-07 17:58 | 40.30655 | -9.92134 | 32367 ft | 453 kts | 218° |
| 2026-05-07 17:58 | 40.28158 | -9.94673 | 32609 ft | 457 kts | 218° |
| 2026-05-07 17:58 | 40.25636 | -9.97233 | 32864 ft | 461 kts | 218° |
| 2026-05-07 17:59 | 40.23085 | -9.99822 | 33002 ft | 467 kts | 218° |
| 2026-05-07 17:59 | 40.20505 | -10.02438 | 33127 ft | 472 kts | 218° |
| 2026-05-07 17:59 | 40.17900 | -10.05075 | 33251 ft | 475 kts | 218° |
| 2026-05-07 17:59 | 40.15281 | -10.07725 | 33379 ft | 477 kts | 218° |
| 2026-05-07 18:00 | 40.12655 | -10.10380 | 33503 ft | 474 kts | 218° |
| 2026-05-07 18:00 | 40.10083 | -10.12976 | 33771 ft | 462 kts | 218° |
| 2026-05-07 18:00 | 40.07579 | -10.15503 | 34142 ft | 460 kts | 218° |
| 2026-05-07 18:00 | 40.05044 | -10.18058 | 34515 ft | 460 kts | 218° |
| 2026-05-07 18:01 | 40.02511 | -10.20608 | 34892 ft | 460 kts | 218° |
| 2026-05-07 18:01 | 39.99980 | -10.23154 | 35280 ft | 459 kts | 218° |
| 2026-05-07 18:01 | 39.97552 | -10.25594 | 35638 ft | 458 kts | 218° |
| 2026-05-07 18:01 | 39.95027 | -10.28129 | 36004 ft | 457 kts | 218° |
| 2026-05-07 18:02 | 39.89997 | -10.33173 | 36742 ft | 455 kts | 218° |
| 2026-05-07 18:02 | 39.87459 | -10.35714 | 37122 ft | 454 kts | 218° |
| 2026-05-07 18:02 | 39.84990 | -10.38184 | 37485 ft | 452 kts | 218° |
| 2026-05-07 18:03 | 39.82498 | -10.40674 | 37855 ft | 451 kts | 218° |
| 2026-05-07 18:03 | 39.80018 | -10.43150 | 38221 ft | 449 kts | 218° |
| 2026-05-07 18:03 | 39.77548 | -10.45614 | 38602 ft | 446 kts | 218° |
| 2026-05-07 18:03 | 39.75087 | -10.48066 | 38908 ft | 446 kts | 218° |
| 2026-05-07 18:04 | 39.72612 | -10.50531 | 38988 ft | 451 kts | 218° |
| 2026-05-07 18:04 | 39.67568 | -10.55547 | 38996 ft | 460 kts | 218° |
| 2026-05-07 18:05 | 39.62498 | -10.60578 | 39009 ft | 458 kts | 218° |
| 2026-05-07 18:05 | 39.57433 | -10.65595 | 39001 ft | 458 kts | 217° |
| 2026-05-07 18:06 | 39.52367 | -10.70604 | 38998 ft | 458 kts | 217° |
| 2026-05-07 18:06 | 39.47299 | -10.75607 | 39003 ft | 458 kts | 217° |
| 2026-05-07 18:07 | 39.42226 | -10.80603 | 38996 ft | 458 kts | 217° |
| 2026-05-07 18:07 | 39.37149 | -10.85594 | 38999 ft | 458 kts | 217° |
| 2026-05-07 18:08 | 39.32074 | -10.90575 | 39000 ft | 458 kts | 217° |
| 2026-05-07 18:08 | 39.27029 | -10.95517 | 38998 ft | 458 kts | 217° |
| 2026-05-07 18:09 | 39.21947 | -11.00485 | 39000 ft | 458 kts | 217° |
| 2026-05-07 18:09 | 39.16864 | -11.05446 | 38998 ft | 458 kts | 217° |
| 2026-05-07 18:10 | 39.11782 | -11.10396 | 39006 ft | 458 kts | 217° |
| 2026-05-07 18:10 | 39.06695 | -11.15343 | 39000 ft | 458 kts | 217° |
| 2026-05-07 18:11 | 39.01606 | -11.20282 | 39004 ft | 458 kts | 217° |
| 2026-05-07 18:11 | 38.96513 | -11.25215 | 39001 ft | 458 kts | 217° |
| 2026-05-07 18:12 | 38.91419 | -11.30141 | 39005 ft | 458 kts | 217° |
| 2026-05-07 18:12 | 38.86317 | -11.35065 | 39001 ft | 458 kts | 217° |
| 2026-05-07 18:13 | 38.81218 | -11.39977 | 38998 ft | 458 kts | 217° |
| 2026-05-07 18:13 | 38.76154 | -11.44846 | 39003 ft | 458 kts | 217° |
| 2026-05-07 18:14 | 38.71050 | -11.49746 | 39007 ft | 458 kts | 217° |
| 2026-05-07 18:14 | 38.65941 | -11.54641 | 39003 ft | 458 kts | 217° |
| 2026-05-07 18:15 | 38.60831 | -11.59527 | 39002 ft | 458 kts | 217° |
| 2026-05-07 18:15 | 38.55724 | -11.64403 | 38998 ft | 458 kts | 217° |
| 2026-05-07 18:16 | 38.50618 | -11.69268 | 39002 ft | 458 kts | 217° |
| 2026-05-07 18:16 | 38.45505 | -11.74130 | 38996 ft | 458 kts | 217° |
| 2026-05-07 18:17 | 38.40391 | -11.78985 | 38998 ft | 458 kts | 217° |
| 2026-05-07 18:17 | 38.35274 | -11.83834 | 39003 ft | 458 kts | 217° |
| 2026-05-07 18:18 | 38.30156 | -11.88676 | 39004 ft | 458 kts | 217° |
| 2026-05-07 18:18 | 38.25038 | -11.93509 | 39000 ft | 458 kts | 217° |
| 2026-05-07 18:19 | 38.19949 | -11.98306 | 38999 ft | 458 kts | 217° |
| 2026-05-07 18:19 | 38.14827 | -12.03126 | 38998 ft | 458 kts | 217° |
| 2026-05-07 18:20 | 38.09702 | -12.07939 | 38999 ft | 458 kts | 217° |
| 2026-05-07 18:20 | 38.04573 | -12.12749 | 39000 ft | 458 kts | 217° |
| 2026-05-07 18:21 | 37.99439 | -12.17553 | 38996 ft | 458 kts | 217° |
| 2026-05-07 18:21 | 37.94306 | -12.22349 | 39001 ft | 458 kts | 217° |
| 2026-05-07 18:22 | 37.89171 | -12.27138 | 39001 ft | 458 kts | 217° |
| 2026-05-07 18:22 | 37.84038 | -12.31917 | 38998 ft | 458 kts | 216° |
| 2026-05-07 18:23 | 37.78902 | -12.36689 | 39005 ft | 458 kts | 216° |
| 2026-05-07 18:23 | 37.73790 | -12.41431 | 39001 ft | 458 kts | 216° |
| 2026-05-07 18:24 | 37.68650 | -12.46191 | 39002 ft | 458 kts | 216° |
| 2026-05-07 18:24 | 37.63499 | -12.50953 | 38999 ft | 458 kts | 216° |
| 2026-05-07 18:25 | 37.58355 | -12.55700 | 38999 ft | 458 kts | 216° |
| 2026-05-07 18:25 | 37.53207 | -12.60442 | 39000 ft | 458 kts | 216° |
| 2026-05-07 18:26 | 37.48059 | -12.65177 | 38997 ft | 458 kts | 216° |
| 2026-05-07 18:26 | 37.42907 | -12.69906 | 39006 ft | 458 kts | 216° |
| 2026-05-07 18:27 | 37.37756 | -12.74626 | 38996 ft | 458 kts | 216° |
| 2026-05-07 18:27 | 37.32602 | -12.79340 | 38999 ft | 458 kts | 216° |
| 2026-05-07 18:28 | 37.27440 | -12.84055 | 39001 ft | 458 kts | 216° |
| 2026-05-07 18:28 | 37.22284 | -12.88755 | 38999 ft | 458 kts | 216° |
| 2026-05-07 18:29 | 37.17153 | -12.93424 | 38996 ft | 458 kts | 216° |
| 2026-05-07 18:29 | 37.11989 | -12.98116 | 39002 ft | 458 kts | 216° |
| 2026-05-07 18:30 | 37.06829 | -13.02796 | 39000 ft | 458 kts | 216° |
| 2026-05-07 18:30 | 37.01665 | -13.07471 | 38998 ft | 458 kts | 216° |
| 2026-05-07 18:31 | 36.96494 | -13.12145 | 38996 ft | 458 kts | 216° |
| 2026-05-07 18:31 | 36.92196 | -13.16023 | 38999 ft | 458 kts | 216° |
| 2026-05-07 18:32 | 36.87024 | -13.20683 | 39009 ft | 458 kts | 216° |
| 2026-05-07 18:32 | 36.81849 | -13.25337 | 38996 ft | 458 kts | 216° |
| 2026-05-07 18:33 | 36.76677 | -13.29982 | 38998 ft | 458 kts | 216° |
| 2026-05-07 18:33 | 36.71484 | -13.34636 | 39001 ft | 458 kts | 216° |
| 2026-05-07 18:34 | 36.66307 | -13.39269 | 39001 ft | 458 kts | 216° |
| 2026-05-07 18:34 | 36.61127 | -13.43897 | 38996 ft | 458 kts | 216° |
| 2026-05-07 18:35 | 36.55945 | -13.48518 | 39004 ft | 458 kts | 216° |
| 2026-05-07 18:35 | 36.50762 | -13.53133 | 38999 ft | 458 kts | 216° |
| 2026-05-07 18:36 | 36.45575 | -13.57744 | 38998 ft | 458 kts | 216° |
| 2026-05-07 18:36 | 36.40388 | -13.62347 | 38996 ft | 458 kts | 216° |
| 2026-05-07 18:37 | 36.35198 | -13.66944 | 38997 ft | 458 kts | 216° |
| 2026-05-07 18:37 | 36.30006 | -13.71536 | 39008 ft | 458 kts | 216° |
| 2026-05-07 18:38 | 36.24812 | -13.76122 | 38996 ft | 458 kts | 216° |
| 2026-05-07 18:38 | 36.19649 | -13.80674 | 39004 ft | 458 kts | 216° |
| 2026-05-07 18:39 | 36.14453 | -13.85246 | 39001 ft | 458 kts | 216° |
| 2026-05-07 18:39 | 36.09222 | -13.89841 | 38996 ft | 458 kts | 216° |
| 2026-05-07 18:40 | 36.04023 | -13.94401 | 39000 ft | 458 kts | 216° |
| 2026-05-07 18:40 | 35.98855 | -13.98927 | 38999 ft | 458 kts | 216° |
| 2026-05-07 18:41 | 35.93653 | -14.03474 | 39000 ft | 458 kts | 216° |
| 2026-05-07 18:41 | 35.88441 | -14.08023 | 38998 ft | 460 kts | 215° |
| 2026-05-07 18:42 | 35.83225 | -14.12568 | 39000 ft | 458 kts | 215° |
| 2026-05-07 18:42 | 35.78016 | -14.17099 | 39000 ft | 458 kts | 215° |
| 2026-05-07 18:43 | 35.72805 | -14.21625 | 38999 ft | 458 kts | 215° |
| 2026-05-07 18:43 | 35.67593 | -14.26144 | 39003 ft | 458 kts | 215° |
| 2026-05-07 18:44 | 35.62379 | -14.30657 | 39008 ft | 458 kts | 215° |
| 2026-05-07 18:44 | 35.57165 | -14.35163 | 38996 ft | 458 kts | 215° |
| 2026-05-07 18:45 | 35.51950 | -14.39664 | 38998 ft | 458 kts | 215° |
| 2026-05-07 18:45 | 35.46731 | -14.44159 | 38995 ft | 458 kts | 215° |
| 2026-05-07 18:46 | 35.41512 | -14.48648 | 38999 ft | 458 kts | 215° |
| 2026-05-07 18:46 | 35.36289 | -14.53133 | 38999 ft | 458 kts | 215° |
| 2026-05-07 18:47 | 35.31067 | -14.57610 | 39000 ft | 458 kts | 215° |
| 2026-05-07 18:47 | 35.25840 | -14.62084 | 38998 ft | 458 kts | 215° |
| 2026-05-07 18:48 | 35.20613 | -14.66550 | 39000 ft | 458 kts | 215° |
| 2026-05-07 18:48 | 35.15415 | -14.70985 | 38998 ft | 458 kts | 215° |
| 2026-05-07 18:49 | 35.10153 | -14.75468 | 39002 ft | 458 kts | 215° |
| 2026-05-07 18:49 | 35.04921 | -14.79917 | 39000 ft | 458 kts | 215° |
| 2026-05-07 18:50 | 34.99722 | -14.84331 | 38996 ft | 458 kts | 215° |
| 2026-05-07 18:50 | 34.94483 | -14.88773 | 39006 ft | 458 kts | 215° |
| 2026-05-07 18:51 | 34.89246 | -14.93206 | 39000 ft | 458 kts | 215° |
| 2026-05-07 18:51 | 34.84008 | -14.97632 | 39001 ft | 458 kts | 215° |
| 2026-05-07 18:52 | 34.78770 | -15.02052 | 39000 ft | 458 kts | 215° |
| 2026-05-07 18:52 | 34.73526 | -15.06470 | 38999 ft | 458 kts | 215° |
| 2026-05-07 18:53 | 34.68282 | -15.10881 | 39003 ft | 458 kts | 215° |
| 2026-05-07 18:53 | 34.63032 | -15.15289 | 38998 ft | 458 kts | 215° |
| 2026-05-07 18:54 | 34.57788 | -15.19686 | 39006 ft | 458 kts | 215° |
| 2026-05-07 18:54 | 34.52539 | -15.24080 | 39002 ft | 458 kts | 215° |
| 2026-05-07 18:55 | 34.47295 | -15.28464 | 38971 ft | 464 kts | 215° |
| 2026-05-07 18:55 | 34.44642 | -15.30679 | 38694 ft | 462 kts | 214° |
| 2026-05-07 18:55 | 34.42000 | -15.32883 | 38320 ft | 459 kts | 214° |
| 2026-05-07 18:55 | 34.39382 | -15.35065 | 37944 ft | 455 kts | 214° |
| 2026-05-07 18:56 | 34.36787 | -15.37227 | 37572 ft | 450 kts | 214° |
| 2026-05-07 18:56 | 34.34221 | -15.39362 | 37200 ft | 445 kts | 214° |
| 2026-05-07 18:56 | 34.31679 | -15.41476 | 36815 ft | 440 kts | 214° |
| 2026-05-07 18:56 | 34.29148 | -15.43580 | 36452 ft | 448 kts | 214° |
| 2026-05-07 18:57 | 34.26530 | -15.45754 | 36108 ft | 464 kts | 214° |
| 2026-05-07 18:57 | 34.23854 | -15.47974 | 35588 ft | 467 kts | 214° |
| 2026-05-07 18:57 | 34.21182 | -15.50190 | 35027 ft | 464 kts | 214° |
| 2026-05-07 18:57 | 34.18534 | -15.52384 | 34479 ft | 460 kts | 214° |
| 2026-05-07 18:58 | 34.15902 | -15.54562 | 33928 ft | 458 kts | 214° |
| 2026-05-07 18:58 | 34.13262 | -15.56746 | 33376 ft | 460 kts | 214° |
| 2026-05-07 18:58 | 34.10623 | -15.58928 | 32834 ft | 459 kts | 214° |
| 2026-05-07 18:58 | 34.07992 | -15.61100 | 32282 ft | 457 kts | 214° |
| 2026-05-07 18:59 | 34.05383 | -15.63254 | 31685 ft | 453 kts | 214° |
| 2026-05-07 18:59 | 34.02792 | -15.65391 | 31078 ft | 450 kts | 214° |
| 2026-05-07 18:59 | 34.00218 | -15.67513 | 30440 ft | 447 kts | 214° |
| 2026-05-07 18:59 | 33.97662 | -15.69619 | 29811 ft | 444 kts | 214° |
| 2026-05-07 19:00 | 33.95123 | -15.71711 | 29185 ft | 441 kts | 214° |
| 2026-05-07 19:00 | 33.92601 | -15.73786 | 28569 ft | 437 kts | 214° |
| 2026-05-07 19:00 | 33.90099 | -15.75843 | 27946 ft | 434 kts | 214° |
| 2026-05-07 19:00 | 33.87614 | -15.77885 | 27326 ft | 431 kts | 214° |
| 2026-05-07 19:01 | 33.85181 | -15.79883 | 26707 ft | 427 kts | 214° |
| 2026-05-07 19:01 | 33.82735 | -15.81890 | 26083 ft | 424 kts | 214° |
| 2026-05-07 19:01 | 33.80302 | -15.83885 | 25456 ft | 420 kts | 214° |
| 2026-05-07 19:01 | 33.77898 | -15.85855 | 24829 ft | 417 kts | 214° |
| 2026-05-07 19:02 | 33.75512 | -15.87809 | 24264 ft | 412 kts | 214° |
| 2026-05-07 19:02 | 33.73186 | -15.89712 | 24049 ft | 397 kts | 214° |
| 2026-05-07 19:02 | 33.70952 | -15.91538 | 23994 ft | 377 kts | 214° |
| 2026-05-07 19:02 | 33.68860 | -15.93246 | 23997 ft | 350 kts | 214° |
| 2026-05-07 19:03 | 33.66912 | -15.94830 | 23995 ft | 326 kts | 213° |
| 2026-05-07 19:03 | 33.65042 | -15.96209 | 23999 ft | 310 kts | 212° |
| 2026-05-07 19:03 | 33.63199 | -15.97604 | 24002 ft | 317 kts | 213° |
| 2026-05-07 19:03 | 33.61349 | -15.99047 | 24000 ft | 317 kts | 213° |
| 2026-05-07 19:04 | 33.59496 | -16.00494 | 23883 ft | 319 kts | 213° |
| 2026-05-07 19:04 | 33.57630 | -16.01942 | 23461 ft | 319 kts | 213° |
| 2026-05-07 19:04 | 33.55776 | -16.03372 | 22958 ft | 314 kts | 213° |
| 2026-05-07 19:04 | 33.53949 | -16.04774 | 22455 ft | 309 kts | 213° |
| 2026-05-07 19:05 | 33.52151 | -16.06151 | 21953 ft | 305 kts | 213° |
| 2026-05-07 19:05 | 33.50373 | -16.07511 | 21457 ft | 303 kts | 213° |
| 2026-05-07 19:05 | 33.48605 | -16.08863 | 20958 ft | 301 kts | 213° |
| 2026-05-07 19:05 | 33.46844 | -16.10210 | 20455 ft | 297 kts | 213° |
| 2026-05-07 19:06 | 33.45108 | -16.11537 | 19972 ft | 296 kts | 213° |
| 2026-05-07 19:06 | 33.41689 | -16.14148 | 19734 ft | 295 kts | 213° |
| 2026-05-07 19:06 | 33.39947 | -16.15478 | 19739 ft | 297 kts | 213° |
| 2026-05-07 19:07 | 33.38213 | -16.16801 | 19743 ft | 295 kts | 213° |
| 2026-05-07 19:07 | 33.36485 | -16.18118 | 19740 ft | 295 kts | 213° |
| 2026-05-07 19:07 | 33.34753 | -16.19438 | 19737 ft | 295 kts | 213° |
| 2026-05-07 19:07 | 33.33020 | -16.20758 | 19739 ft | 295 kts | 213° |
| 2026-05-07 19:08 | 33.31254 | -16.22008 | 19745 ft | 295 kts | 207° |
| 2026-05-07 19:08 | 33.29404 | -16.23065 | 19727 ft | 296 kts | 197° |
| 2026-05-07 19:08 | 33.27364 | -16.23310 | 19676 ft | 297 kts | 174° |
| 2026-05-07 19:08 | 33.25328 | -16.22848 | 19374 ft | 299 kts | 166° |
| 2026-05-07 19:09 | 33.23317 | -16.22258 | 19003 ft | 296 kts | 166° |
| 2026-05-07 19:09 | 33.21330 | -16.21675 | 18627 ft | 292 kts | 166° |
| 2026-05-07 19:09 | 33.19371 | -16.21099 | 18250 ft | 288 kts | 166° |
| 2026-05-07 19:09 | 33.17502 | -16.20549 | 17892 ft | 289 kts | 166° |
| 2026-05-07 19:10 | 33.15558 | -16.19977 | 17518 ft | 286 kts | 166° |
| 2026-05-07 19:10 | 33.13635 | -16.19410 | 17149 ft | 284 kts | 166° |
| 2026-05-07 19:10 | 33.11716 | -16.18845 | 16767 ft | 284 kts | 166° |
| 2026-05-07 19:10 | 33.09808 | -16.18283 | 16390 ft | 281 kts | 166° |
| 2026-05-07 19:11 | 33.07917 | -16.17726 | 16015 ft | 280 kts | 166° |
| 2026-05-07 19:11 | 33.06030 | -16.17170 | 15642 ft | 278 kts | 166° |
| 2026-05-07 19:11 | 33.04163 | -16.16620 | 15265 ft | 276 kts | 166° |
| 2026-05-07 19:11 | 33.02298 | -16.16070 | 14888 ft | 275 kts | 166° |
| 2026-05-07 19:12 | 33.01395 | -16.15804 | 14706 ft | 274 kts | 166° |